Time;durP1;ratioP1;P1;durP2;ratioP2;P2;SDS_P1;SDS_P2;PMS_P1;PMS_P2;Temp;Humidity;BMP_temperature;BMP_pressure;BME280_temperature;BME280_humidity;BME280_pressure;Samples;Min_cycle;Max_cycle;Signal;HPM_P1;HPM_P2
2024/04/23 00:01:36;;;;;;;;;;;;;;;12.07;62.17;94520.03;4438073;26;20044;-61
2024/04/23 00:03:38;;;;;;;;;;;;;;;12.08;62.23;94521.66;4439550;26;19929;-60
2024/04/23 00:05:40;;;;;;;;;;;;;;;11.94;62.60;94517.13;4435614;26;20292;-62
2024/04/23 00:07:42;;;;;;;;;;;;;;;11.93;62.70;94523.38;4441574;26;19993;-60
2024/04/23 00:09:44;;;;;;;;;;;;;;;11.88;62.88;94527.31;4438220;26;19960;-59
2024/04/23 00:11:45;;;;;;;;;;;;;;;11.84;62.93;94525.19;4436283;26;19994;-59
2024/04/23 00:13:47;;;;;;;;;;;;;;;11.93;62.90;94523.38;4431302;26;20247;-61
2024/04/23 00:15:49;;;;;;;;;;;;;;;12.05;62.62;94522.00;4426671;26;20411;-61
2024/04/23 00:17:51;;;;;;;;;;;;;;;12.05;62.79;94522.00;4437984;26;20080;-60
2024/04/23 00:19:52;;;;;;;;;;;;;;;12.08;62.84;94521.66;4440725;26;20224;-59
2024/04/23 00:21:54;;;;;;;;;;;;;;;12.05;63.01;94517.56;4440540;26;20448;-60
2024/04/23 00:23:56;;;;;;;;;;;;;;;11.93;62.93;94518.94;4436587;26;20505;-60
2024/04/23 00:25:58;;;;;;;;;;;;;;;11.92;63.24;94519.13;4428638;26;20397;-59
2024/04/23 00:28:00;;;;;;;;;;;;;;;11.98;63.57;94519.25;4438805;26;20024;-59
2024/04/23 00:30:02;;;;;;;;;;;;;;;12.02;63.12;94507.44;4437437;26;19930;-59
2024/04/23 00:32:04;;;;;;;;;;;;;;;12.04;63.77;94508.03;4442435;26;19929;-61
2024/04/23 00:34:06;;;;;;;;;;;;;;;12.10;63.75;94503.91;4434140;26;19930;-60
2024/04/23 00:36:07;;;;;;;;;;;;;;;12.16;63.42;94500.59;4426914;26;19999;-60
2024/04/23 00:38:09;;;;;;;;;;;;;;;12.22;63.63;94492.03;4443784;26;19937;-58
2024/04/23 00:40:11;;;;;;;;;;;;;;;12.17;63.59;94496.16;4437165;26;20028;-60
2024/04/23 00:42:13;;;;;;;;;;;;;;;12.09;63.73;94500.47;4426485;26;19958;-59
2024/04/23 00:44:15;;;;;;;;;;;;;;;12.14;63.70;94507.84;4443906;26;19950;-59
2024/04/23 00:46:16;;;;;;;;;;;;;;;12.19;63.85;94513.38;4441894;26;20013;-60
2024/04/23 00:48:18;;;;;;;;;;;;;;;12.21;63.82;94514.03;4416291;26;20231;-61
2024/04/23 00:50:20;;;;;;;;;;;;;;;12.19;64.34;94502.06;4442641;26;19930;-60
2024/04/23 00:52:22;;;;;;;;;;;;;;;12.16;65.05;94497.97;4437638;26;20004;-61
2024/04/23 00:54:24;;;;;;;;;;;;;;;12.15;65.22;94498.94;4450549;26;19954;-60
2024/04/23 00:56:26;;;;;;;;;;;;;;;12.16;65.64;94492.72;4436491;26;20373;-60
2024/04/23 00:58:27;;;;;;;;;;;;;;;12.16;66.23;94486.66;4437580;26;20479;-59
2024/04/23 01:00:29;;;;;;;;;;;;;;;12.16;67.56;94476.97;4443894;26;19929;-60
2024/04/23 01:02:31;;;;;;;;;;;;;;;12.19;67.21;94481.06;4439193;26;20731;-61
2024/04/23 01:04:33;;;;;;;;;;;;;;;12.18;68.28;94484.69;4443033;26;19965;-61
2024/04/23 01:06:35;;;;;;;;;;;;;;;12.15;68.22;94471.88;4442543;26;19936;-61
2024/04/23 01:08:36;;;;;;;;;;;;;;;12.18;68.76;94472.38;4434009;26;19941;-60
2024/04/23 01:10:41;;;;;;;;;;;;;;;12.06;68.79;94461.44;4436361;26;20012;-63
2024/04/23 01:12:43;;;;;;;;;;;;;;;12.04;69.82;94465.22;4441101;26;20018;-60
2024/04/23 01:14:45;;;;;;;;;;;;;;;12.03;69.26;94463.59;4439549;26;20380;-60
2024/04/23 01:16:47;;;;;;;;;;;;;;;12.06;69.83;94476.38;4441772;26;20479;-59
2024/04/23 01:18:49;;;;;;;;;;;;;;;12.09;69.50;94465.53;4465731;26;19941;-61
2024/04/23 01:20:52;;;;;;;;;;;;;;;12.11;69.64;94463.56;4428097;26;20364;-60
2024/04/23 01:23:06;;;;;;;;;;;;;;;12.11;69.52;94460.94;4443657;26;19933;-59
2024/04/23 01:25:12;;;;;;;;;;;;;;;12.13;70.03;94456.31;4442456;26;19945;-58
2024/04/23 01:27:14;;;;;;;;;;;;;;;12.11;69.99;94447.81;4445037;26;19930;-60
2024/04/23 01:29:16;;;;;;;;;;;;;;;11.99;70.03;94442.13;4443139;26;19955;-59
2024/04/23 01:31:18;;;;;;;;;;;;;;;11.95;70.84;94446.09;4440338;26;19940;-59
2024/04/23 01:33:21;;;;;;;;;;;;;;;12.01;70.74;94449.84;4443862;26;19936;-62
2024/04/23 01:35:23;;;;;;;;;;;;;;;12.03;71.17;94439.97;4441416;26;20300;-60
2024/04/23 01:37:25;;;;;;;;;;;;;;;12.06;71.07;94432.53;4440558;26;20118;-60
2024/04/23 01:39:27;;;;;;;;;;;;;;;12.08;70.58;94432.38;4442680;26;19940;-61
2024/04/23 01:41:29;;;;;;;;;;;;;;;12.09;70.52;94424.34;4444761;26;20091;-59
2024/04/23 01:43:31;;;;;;;;;;;;;;;12.11;71.02;94421.56;4456241;26;20419;-60
2024/04/23 01:45:33;;;;;;;;;;;;;;;12.06;70.80;94414.16;4424464;26;19937;-60
2024/04/23 01:47:35;;;;;;;;;;;;;;;12.09;71.21;94415.66;4438758;26;20390;-59
2024/04/23 01:49:37;;;;;;;;;;;;;;;12.08;71.62;94406.13;4429197;26;19929;-61
2024/04/23 01:51:38;;;;;;;;;;;;;;;12.06;71.40;94402.84;4426779;26;19930;-59
2024/04/23 01:53:40;;;;;;;;;;;;;;;12.04;71.73;94402.22;4432717;26;19936;-61
2024/04/23 01:55:42;;;;;;;;;;;;;;;11.98;72.69;94400.28;4437779;26;19933;-60
2024/04/23 01:57:44;;;;;;;;;;;;;;;11.91;72.83;94399.34;4419576;26;19941;-60
2024/04/23 01:59:47;;;;;;;;;;;;;;;11.79;73.39;94386.63;4457539;26;20243;-61
2024/04/23 02:01:50;;;;;;;;;;;;;;;11.73;74.32;94395.19;4429012;26;19958;-59
2024/04/23 02:04:12;;;;;;;;;;;;;;;11.76;74.26;94402.69;4432289;26;20084;-61
2024/04/23 02:06:14;;;;;;;;;;;;;;;11.77;74.28;94388.59;4435648;26;19937;-59
2024/04/23 02:08:16;;;;;;;;;;;;;;;11.80;74.96;94390.03;4440484;26;19933;-60
2024/04/23 02:10:18;;;;;;;;;;;;;;;11.82;74.43;94398.56;4433271;26;20177;-59
2024/04/23 02:12:21;;;;;;;;;;;;;;;11.86;74.68;94399.84;4432845;26;19942;-60
2024/04/23 02:14:23;;;;;;;;;;;;;;;11.88;74.87;94397.91;4443012;26;19998;-59
2024/04/23 02:16:24;;;;;;;;;;;;;;;11.93;74.59;94379.00;4440163;26;19940;-59
2024/04/23 02:18:26;;;;;;;;;;;;;;;11.94;74.67;94384.09;4426761;26;20446;-58
2024/04/23 02:20:29;;;;;;;;;;;;;;;11.93;74.01;94392.13;4431333;26;20240;-60
2024/04/23 02:22:30;;;;;;;;;;;;;;;11.92;74.63;94387.88;4444681;26;19999;-59
2024/04/23 02:24:32;;;;;;;;;;;;;;;11.88;73.78;94374.28;4434789;26;19930;-61
2024/04/23 02:26:34;;;;;;;;;;;;;;;11.80;74.22;94372.50;4443040;26;20385;-60
2024/04/23 02:28:36;;;;;;;;;;;;;;;11.76;74.60;94378.25;4434376;26;19964;-61
2024/04/23 02:30:38;;;;;;;;;;;;;;;11.80;75.37;94364.63;4443023;26;19936;-60
2024/04/23 02:32:39;;;;;;;;;;;;;;;11.80;74.49;94362.00;4432186;26;20341;-60
2024/04/23 02:34:41;;;;;;;;;;;;;;;11.77;74.99;94351.84;4431387;26;19970;-59
2024/04/23 02:36:43;;;;;;;;;;;;;;;11.81;75.18;94350.50;4440296;26;20261;-61
2024/04/23 02:38:45;;;;;;;;;;;;;;;11.81;74.95;94361.00;4438625;26;19969;-59
2024/04/23 02:40:46;;;;;;;;;;;;;;;11.82;75.32;94375.75;4434315;26;19938;-60
2024/04/23 02:42:48;;;;;;;;;;;;;;;11.88;75.50;94375.09;4433109;26;19958;-59
2024/04/23 02:44:50;;;;;;;;;;;;;;;11.83;75.25;94374.78;4450179;26;19934;-60
2024/04/23 02:46:53;;;;;;;;;;;;;;;11.91;74.85;94379.16;4435037;26;20003;-60
2024/04/23 02:48:54;;;;;;;;;;;;;;;11.93;74.69;94371.13;4457652;26;19929;-61
2024/04/23 02:50:56;;;;;;;;;;;;;;;11.88;74.81;94361.16;4439039;26;19942;-60
2024/04/23 02:52:58;;;;;;;;;;;;;;;11.86;74.90;94363.91;4443660;26;19929;-61
2024/04/23 02:55:00;;;;;;;;;;;;;;;11.90;74.46;94368.88;4427540;26;20391;-60
2024/04/23 02:57:02;;;;;;;;;;;;;;;11.79;74.42;94359.56;4438011;26;19929;-61
2024/04/23 02:59:04;;;;;;;;;;;;;;;11.76;74.57;94373.81;4451405;26;20397;-59
2024/04/23 03:01:06;;;;;;;;;;;;;;;11.75;74.49;94381.88;4431507;26;19929;-60
2024/04/23 03:03:08;;;;;;;;;;;;;;;11.60;74.13;94379.19;4436450;26;20002;-61
2024/04/23 03:05:10;;;;;;;;;;;;;;;11.42;74.66;94368.94;4436278;26;20324;-60
2024/04/23 03:07:12;;;;;;;;;;;;;;;11.36;75.15;94362.59;4436903;26;19957;-61
2024/04/23 03:09:14;;;;;;;;;;;;;;;11.35;75.01;94366.19;4433550;26;19936;-60
2024/04/23 03:11:16;;;;;;;;;;;;;;;11.40;75.46;94361.25;4437249;26;20288;-59
2024/04/23 03:13:18;;;;;;;;;;;;;;;11.45;74.93;94361.56;4440855;26;19940;-62
2024/04/23 03:15:20;;;;;;;;;;;;;;;11.50;74.96;94361.03;4444706;26;19945;-59
2024/04/23 03:17:22;;;;;;;;;;;;;;;11.54;74.53;94351.81;4442260;26;20111;-59
2024/04/23 03:19:25;;;;;;;;;;;;;;;11.45;74.03;94353.69;4436775;26;19957;-60
2024/04/23 03:21:27;;;;;;;;;;;;;;;11.45;74.63;94358.94;4443186;26;19937;-63
2024/04/23 03:23:29;;;;;;;;;;;;;;;11.40;74.12;94340.28;4442333;26;19936;-59
2024/04/23 03:25:31;;;;;;;;;;;;;;;11.25;74.62;94344.63;4441934;26;20329;-61
2024/04/23 03:27:33;;;;;;;;;;;;;;;11.28;74.86;94357.38;4439097;26;19933;-60
2024/04/23 03:29:35;;;;;;;;;;;;;;;11.34;74.42;94359.31;4440698;26;20002;-62
2024/04/23 03:31:36;;;;;;;;;;;;;;;11.32;74.25;94358.69;4441047;26;20043;-60
2024/04/23 03:33:38;;;;;;;;;;;;;;;11.36;75.01;94359.97;4428589;26;20004;-62
2024/04/23 03:35:40;;;;;;;;;;;;;;;11.34;74.51;94364.56;4430976;26;19930;-59
2024/04/23 03:37:42;;;;;;;;;;;;;;;11.38;74.65;94368.50;4434842;26;19950;-59
2024/04/23 03:39:44;;;;;;;;;;;;;;;11.44;74.21;94380.91;4439191;26;20299;-60
2024/04/23 03:42:12;;;;;;;;;;;;;;;11.39;74.15;94375.34;4440334;26;19930;-60
2024/04/23 03:44:14;;;;;;;;;;;;;;;11.12;74.71;94386.28;4426403;26;19970;-59
2024/04/23 03:46:16;;;;;;;;;;;;;;;11.04;74.98;94395.00;4426909;26;20057;-61
2024/04/23 03:48:18;;;;;;;;;;;;;;;11.00;75.33;94385.84;4440570;26;19930;-62
2024/04/23 03:50:20;;;;;;;;;;;;;;;10.91;75.23;94384.25;4442119;26;19933;-60
2024/04/23 03:52:26;;;;;;;;;;;;;;;10.96;75.63;94377.50;4438469;26;19937;-59
2024/04/23 03:54:28;;;;;;;;;;;;;;;10.74;75.26;94357.28;4442076;26;19995;-62
2024/04/23 03:56:30;;;;;;;;;;;;;;;10.83;75.60;94358.88;4439820;26;20299;-60
2024/04/23 03:58:31;;;;;;;;;;;;;;;10.87;75.75;94360.19;4437867;26;19937;-60
2024/04/23 04:00:33;;;;;;;;;;;;;;;10.96;75.65;94367.00;4439216;26;19929;-59
2024/04/23 04:07:16;;;;;;;;;;;;;;;11.14;74.25;94358.94;4422825;26;19936;-61
2024/04/23 04:09:17;;;;;;;;;;;;;;;11.14;73.45;94360.72;4437190;26;19984;-60
2024/04/23 04:11:19;;;;;;;;;;;;;;;11.17;73.28;94368.25;4428378;26;20045;-58
2024/04/23 04:13:21;;;;;;;;;;;;;;;11.16;72.89;94369.22;4438687;26;19939;-62
2024/04/23 04:15:24;;;;;;;;;;;;;;;11.05;72.74;94368.63;4426148;26;19929;-59
2024/04/23 04:17:26;;;;;;;;;;;;;;;10.96;72.18;94360.97;4431061;26;20374;-61
2024/04/23 04:19:29;;;;;;;;;;;;;;;10.95;72.26;94351.44;4430147;26;20003;-60
2024/04/23 04:21:31;;;;;;;;;;;;;;;10.96;72.71;94353.91;4431355;26;20021;-58
2024/04/23 04:23:33;;;;;;;;;;;;;;;10.98;72.98;94351.94;4443198;26;19995;-60
2024/04/23 04:25:34;;;;;;;;;;;;;;;11.02;72.31;94352.44;4431512;26;20293;-61
2024/04/23 04:27:36;;;;;;;;;;;;;;;11.05;72.04;94338.97;4436817;26;19939;-59
2024/04/23 04:29:38;;;;;;;;;;;;;;;10.98;72.02;94338.03;4432504;26;19933;-61
2024/04/23 04:31:40;;;;;;;;;;;;;;;11.01;72.08;94350.78;4434653;26;19938;-60
2024/04/23 04:33:41;;;;;;;;;;;;;;;10.99;72.12;94347.50;4430083;26;19999;-61
2024/04/23 04:35:43;;;;;;;;;;;;;;;10.99;72.04;94340.50;4443650;26;20004;-60
2024/04/23 04:37:46;;;;;;;;;;;;;;;11.09;72.65;94350.75;4441642;26;19930;-59
2024/04/23 04:39:47;;;;;;;;;;;;;;;11.12;72.48;94347.81;4437360;26;20012;-59
2024/04/23 04:41:49;;;;;;;;;;;;;;;11.18;72.06;94346.28;4446129;26;19944;-61
2024/04/23 04:43:51;;;;;;;;;;;;;;;11.16;71.73;94359.56;4443016;26;20002;-60
2024/04/23 04:45:53;;;;;;;;;;;;;;;11.15;71.41;94363.19;4442371;26;19930;-61
2024/04/23 04:47:55;;;;;;;;;;;;;;;11.18;71.68;94372.50;4441063;26;19937;-61
2024/04/23 04:49:57;;;;;;;;;;;;;;;11.20;71.49;94370.53;4445436;26;20348;-60
2024/04/23 04:51:59;;;;;;;;;;;;;;;11.26;71.58;94381.16;4432036;26;19938;-61
2024/04/23 04:54:01;;;;;;;;;;;;;;;11.26;71.31;94388.22;4444338;26;20291;-61
2024/04/23 04:56:02;;;;;;;;;;;;;;;11.21;71.17;94393.16;4442781;26;19972;-62
2024/04/23 04:58:04;;;;;;;;;;;;;;;11.24;71.40;94396.22;4436892;26;20772;-61
2024/04/23 05:00:06;;;;;;;;;;;;;;;11.18;71.46;94390.84;4441901;26;19934;-61
2024/04/23 05:02:08;;;;;;;;;;;;;;;11.15;71.55;94376.28;4441588;26;19930;-61
2024/04/23 05:04:10;;;;;;;;;;;;;;;11.18;71.76;94370.69;4429329;26;19929;-61
2024/04/23 05:06:12;;;;;;;;;;;;;;;11.16;71.78;94380.53;4443218;26;19941;-60
2024/04/23 05:08:14;;;;;;;;;;;;;;;11.15;71.83;94381.53;4438625;26;19929;-60
2024/04/23 05:10:15;;;;;;;;;;;;;;;11.12;72.04;94381.03;4443581;26;19942;-60
2024/04/23 05:12:17;;;;;;;;;;;;;;;11.11;71.98;94375.00;4436952;26;19971;-60
2024/04/23 05:14:19;;;;;;;;;;;;;;;11.10;72.21;94373.38;4431495;26;20048;-59
2024/04/23 05:16:21;;;;;;;;;;;;;;;11.14;72.47;94366.81;4444759;26;19950;-58
2024/04/23 05:18:23;;;;;;;;;;;;;;;11.15;72.54;94357.13;4439581;26;19999;-59
2024/04/23 05:20:24;;;;;;;;;;;;;;;11.23;72.42;94349.22;4440214;26;19937;-58
2024/04/23 05:22:26;;;;;;;;;;;;;;;11.29;72.25;94348.53;4426024;26;19941;-58
2024/04/23 05:24:28;;;;;;;;;;;;;;;11.34;72.38;94354.09;4437157;26;19932;-60
2024/04/23 05:26:32;;;;;;;;;;;;;;;11.38;72.54;94372.91;4435159;26;20007;-63
2024/04/23 05:28:34;;;;;;;;;;;;;;;11.38;72.87;94380.75;4445468;26;19930;-61
2024/04/23 05:32:55;;;;;;;;;;;;;;;11.02;73.01;94368.97;4427742;26;19946;-61
2024/04/23 05:34:57;;;;;;;;;;;;;;;10.94;74.10;94355.06;4427799;26;20401;-61
2024/04/23 05:36:59;;;;;;;;;;;;;;;10.82;74.24;94352.81;4435340;26;20025;-60
2024/04/23 05:39:01;;;;;;;;;;;;;;;10.78;75.08;94372.50;4425021;26;20345;-61
2024/04/23 05:41:03;;;;;;;;;;;;;;;10.93;75.50;94364.75;4439378;26;20806;-59
2024/04/23 05:43:05;;;;;;;;;;;;;;;10.95;74.39;94344.44;4441851;26;19936;-62
2024/04/23 05:45:06;;;;;;;;;;;;;;;10.91;74.85;94343.13;4447939;26;20281;-61
2024/04/23 05:47:08;;;;;;;;;;;;;;;10.87;75.08;94339.22;4441915;26;19933;-61
2024/04/23 05:49:29;;;;;;;;;;;;;;;10.93;75.79;94329.88;4443275;26;19958;-60
2024/04/23 05:51:49;;;;;;;;;;;;;;;11.00;75.55;94342.09;4434317;26;19930;-60
2024/04/23 05:54:09;;;;;;;;;;;;;;;11.02;75.17;94349.81;4435922;26;20089;-61
2024/04/23 05:56:11;;;;;;;;;;;;;;;11.11;75.33;94345.34;4443613;26;19929;-62
2024/04/23 05:58:13;;;;;;;;;;;;;;;11.20;74.57;94344.31;4428644;26;20312;-61
2024/04/23 06:00:15;;;;;;;;;;;;;;;11.09;74.51;94332.41;4430950;26;20349;-62
2024/04/23 06:02:16;;;;;;;;;;;;;;;11.06;75.09;94336.19;4434305;26;19938;-61
2024/04/23 06:04:19;;;;;;;;;;;;;;;11.12;75.48;94350.44;4438702;26;20689;-61
2024/04/23 06:06:21;;;;;;;;;;;;;;;11.20;75.45;94360.84;4442682;26;19949;-59
2024/04/23 06:08:25;;;;;;;;;;;;;;;11.26;75.27;94370.66;4439057;26;21918;-60
2024/04/23 06:10:27;;;;;;;;;;;;;;;11.28;74.47;94373.13;4435782;26;19941;-60
2024/04/23 06:12:29;;;;;;;;;;;;;;;11.22;74.83;94382.47;4439579;26;19964;-60
2024/04/23 06:14:31;;;;;;;;;;;;;;;11.23;75.25;94383.31;4427468;26;19980;-61
2024/04/23 06:16:33;;;;;;;;;;;;;;;11.15;75.48;94388.59;4442887;26;19961;-60
2024/04/23 06:18:35;;;;;;;;;;;;;;;11.11;75.13;94374.19;4437937;26;19936;-61
2024/04/23 06:20:37;;;;;;;;;;;;;;;10.97;75.73;94354.72;4436516;26;19937;-60
2024/04/23 06:22:39;;;;;;;;;;;;;;;10.88;75.92;94340.84;4442739;26;20046;-60
2024/04/23 06:24:41;;;;;;;;;;;;;;;10.84;76.52;94344.78;4429821;26;19938;-61
2024/04/23 06:26:43;;;;;;;;;;;;;;;10.89;76.74;94344.28;4446365;26;20003;-60
2024/04/23 06:28:47;;;;;;;;;;;;;;;10.89;76.82;94342.47;4442962;26;19940;-60
2024/04/23 06:30:50;;;;;;;;;;;;;;;10.92;76.78;94346.56;4441144;26;19929;-62
2024/04/23 06:32:52;;;;;;;;;;;;;;;11.02;76.89;94348.00;4439392;26;19960;-59
2024/04/23 06:34:54;;;;;;;;;;;;;;;11.09;76.37;94366.47;4442401;26;20073;-61
2024/04/23 06:36:55;;;;;;;;;;;;;;;11.14;76.45;94365.97;4443592;26;19937;-61
2024/04/23 06:38:57;;;;;;;;;;;;;;;11.21;76.34;94366.94;4441277;26;19938;-61
2024/04/23 06:40:59;;;;;;;;;;;;;;;11.23;76.62;94367.59;4440262;26;20041;-60
2024/04/23 06:43:01;;;;;;;;;;;;;;;11.24;76.46;94366.59;4441910;26;19936;-62
2024/04/23 06:45:03;;;;;;;;;;;;;;;11.27;76.41;94384.59;4444659;26;19957;-61
2024/04/23 06:47:05;;;;;;;;;;;;;;;11.26;76.96;94394.25;4431790;26;19941;-63
2024/04/23 06:49:07;;;;;;;;;;;;;;;11.33;76.76;94401.44;4427632;26;20100;-61
2024/04/23 06:51:09;;;;;;;;;;;;;;;11.33;76.83;94398.81;4440707;26;19930;-60
2024/04/23 06:53:11;;;;;;;;;;;;;;;11.28;76.09;94384.41;4442034;26;20033;-59
2024/04/23 06:55:13;;;;;;;;;;;;;;;11.36;76.64;94386.19;4445323;26;19937;-59
2024/04/23 06:57:15;;;;;;;;;;;;;;;11.35;76.52;94381.94;4446445;26;19929;-61
2024/04/23 06:59:17;;;;;;;;;;;;;;;11.07;76.26;94382.38;4439962;26;19936;-61
2024/04/23 07:01:19;;;;;;;;;;;;;;;11.09;77.08;94390.06;4443292;26;20298;-59
2024/04/23 07:03:20;;;;;;;;;;;;;;;11.16;77.50;94390.22;4437435;26;19963;-61
2024/04/23 07:05:22;;;;;;;;;;;;;;;11.15;77.50;94388.59;4443707;26;19938;-61
2024/04/23 07:07:26;;;;;;;;;;;;;;;11.17;77.59;94391.84;4435168;26;19942;-60
2024/04/23 07:09:28;;;;;;;;;;;;;;;11.13;77.29;94383.50;4433458;26;19933;-59
2024/04/23 07:11:29;;;;;;;;;;;;;;;11.14;77.75;94372.03;4440869;26;19999;-59
2024/04/23 07:13:31;;;;;;;;;;;;;;;11.15;77.39;94357.13;4442735;26;20475;-60
2024/04/23 07:15:33;;;;;;;;;;;;;;;11.20;77.55;94352.19;4427251;26;19971;-60
2024/04/23 07:17:35;;;;;;;;;;;;;;;11.09;77.73;94336.84;4445144;26;20299;-61
2024/04/23 07:19:37;;;;;;;;;;;;;;;10.99;78.72;94339.66;4432888;26;20000;-62
2024/04/23 07:21:39;;;;;;;;;;;;;;;11.03;79.45;94323.44;4429422;26;20411;-61
2024/04/23 07:23:41;;;;;;;;;;;;;;;11.10;78.94;94307.84;4425287;26;20380;-59
2024/04/23 07:25:49;;;;;;;;;;;;;;;10.84;78.50;94310.72;4434460;26;20000;-59
2024/04/23 07:27:51;;;;;;;;;;;;;;;10.98;79.03;94306.56;4440869;26;19929;-60
2024/04/23 07:29:53;;;;;;;;;;;;;;;11.13;79.25;94311.91;4425184;26;19965;-61
2024/04/23 07:31:55;;;;;;;;;;;;;;;11.19;78.78;94301.56;4439064;26;20013;-60
2024/04/23 07:33:57;;;;;;;;;;;;;;;11.30;78.58;94305.59;4427820;26;19929;-62
2024/04/23 07:35:59;;;;;;;;;;;;;;;11.37;78.42;94290.78;4446527;26;20380;-60
2024/04/23 07:38:00;;;;;;;;;;;;;;;11.51;78.84;94296.25;4443810;26;19990;-62
2024/04/23 07:40:03;;;;;;;;;;;;;;;11.47;78.75;94299.25;4438472;26;19934;-59
2024/04/23 07:42:04;;;;;;;;;;;;;;;11.44;77.99;94310.09;4432755;26;20335;-61
2024/04/23 07:44:06;;;;;;;;;;;;;;;11.32;78.46;94321.97;4446288;26;19934;-60
2024/04/23 07:46:08;;;;;;;;;;;;;;;11.36;78.98;94312.78;4424497;26;20231;-60
2024/04/23 07:48:10;;;;;;;;;;;;;;;11.45;79.08;94310.91;4444455;26;20012;-62
2024/04/23 07:50:12;;;;;;;;;;;;;;;11.51;78.53;94299.72;4435254;26;19929;-61
2024/04/23 07:52:14;;;;;;;;;;;;;;;11.60;78.38;94293.41;4442883;26;19994;-61
2024/04/23 07:54:15;;;;;;;;;;;;;;;11.67;78.38;94290.91;4445178;26;19981;-60
2024/04/23 07:56:21;;;;;;;;;;;;;;;11.68;77.47;94293.38;4410859;26;19969;-60
2024/04/23 07:58:23;;;;;;;;;;;;;;;11.59;77.91;94298.84;4439386;26;19960;-59
2024/04/23 08:00:27;;;;;;;;;;;;;;;11.62;78.31;94290.63;4446062;26;19936;-60
2024/04/23 08:02:29;;;;;;;;;;;;;;;11.46;78.59;94281.91;4425753;26;19954;-62
2024/04/23 08:04:31;;;;;;;;;;;;;;;11.33;78.75;94279.00;4429781;26;20295;-61
2024/04/23 08:06:33;;;;;;;;;;;;;;;11.28;79.19;94276.09;4445759;26;20364;-60
2024/04/23 08:08:37;;;;;;;;;;;;;;;11.35;79.13;94268.34;4441076;26;19929;-59
2024/04/23 08:10:40;;;;;;;;;;;;;;;11.30;78.72;94266.25;4437974;26;19960;-62
2024/04/23 08:12:42;;;;;;;;;;;;;;;11.38;79.02;94252.25;4416880;26;20034;-61
2024/04/23 08:14:44;;;;;;;;;;;;;;;11.33;78.68;94258.03;4437037;26;19983;-61
2024/04/23 08:16:49;;;;;;;;;;;;;;;11.40;79.02;94260.75;4422240;26;19930;-60
2024/04/23 08:18:51;;;;;;;;;;;;;;;11.33;78.59;94250.16;4428631;26;20344;-62
2024/04/23 08:20:53;;;;;;;;;;;;;;;11.37;78.99;94243.56;4445783;26;20371;-61
2024/04/23 08:22:57;;;;;;;;;;;;;;;11.30;78.45;94247.91;4445679;26;20003;-63
2024/04/23 08:24:59;;;;;;;;;;;;;;;11.39;79.18;94259.94;4443856;26;19968;-60
2024/04/23 08:27:01;;;;;;;;;;;;;;;11.44;79.21;94262.88;4438107;26;19994;-62
2024/04/23 08:29:03;;;;;;;;;;;;;;;11.34;78.91;94270.16;4445414;26;19937;-59
2024/04/23 08:31:05;;;;;;;;;;;;;;;11.10;79.95;94267.69;4443053;26;19929;-62
2024/04/23 08:33:07;;;;;;;;;;;;;;;11.14;80.26;94274.22;4439694;26;19929;-63
2024/04/23 08:35:09;;;;;;;;;;;;;;;11.15;79.81;94279.28;4432591;26;20321;-61
2024/04/23 08:37:11;;;;;;;;;;;;;;;11.13;79.54;94280.44;4445505;26;19949;-60
2024/04/23 08:39:13;;;;;;;;;;;;;;;11.15;79.92;94278.47;4445783;26;20019;-61
2024/04/23 08:41:15;;;;;;;;;;;;;;;11.15;79.81;94284.53;4442365;26;19940;-62
2024/04/23 08:43:24;;;;;;;;;;;;;;;11.03;80.73;94278.88;4444790;26;20037;-61
2024/04/23 08:45:25;;;;;;;;;;;;;;;10.90;81.47;94285.63;4444185;26;20526;-62
2024/04/23 08:47:27;;;;;;;;;;;;;;;10.92;81.25;94278.44;4434683;26;20042;-61
2024/04/23 08:49:29;;;;;;;;;;;;;;;10.89;81.08;94282.22;4437358;26;20280;-60
2024/04/23 08:51:32;;;;;;;;;;;;;;;10.93;81.03;94270.41;4443827;26;19941;-61
2024/04/23 08:53:33;;;;;;;;;;;;;;;10.95;80.68;94271.03;4442259;26;20060;-60
2024/04/23 08:55:44;;;;;;;;;;;;;;;10.94;81.01;94287.75;4443016;26;19954;-63
2024/04/23 08:57:45;;;;;;;;;;;;;;;11.00;81.30;94279.19;4437949;26;20542;-59
2024/04/23 08:59:48;;;;;;;;;;;;;;;11.11;81.38;94275.38;4430808;26;20338;-63
2024/04/23 09:01:58;;;;;;;;;;;;;;;11.14;81.23;94266.34;4437397;26;19930;-62
2024/04/23 09:03:59;;;;;;;;;;;;;;;11.18;81.31;94270.25;4439515;26;19964;-62
2024/04/23 09:06:01;;;;;;;;;;;;;;;11.18;81.24;94268.44;4443816;26;19974;-63
2024/04/23 09:08:04;;;;;;;;;;;;;;;11.24;81.21;94269.56;4434733;26;20273;-61
2024/04/23 09:10:07;;;;;;;;;;;;;;;11.27;81.14;94266.59;4409841;26;20622;-61
2024/04/23 09:12:10;;;;;;;;;;;;;;;11.31;81.21;94267.06;4439269;26;20002;-62
2024/04/23 09:14:12;;;;;;;;;;;;;;;11.34;81.64;94275.41;4426139;26;19945;-62
2024/04/23 09:16:14;;;;;;;;;;;;;;;11.36;81.02;94280.50;4418979;26;19937;-62
2024/04/23 09:18:16;;;;;;;;;;;;;;;11.40;81.53;94281.75;4431615;26;20040;-60
2024/04/23 09:20:18;;;;;;;;;;;;;;;11.40;80.84;94277.34;4440493;26;19929;-63
2024/04/23 09:22:19;;;;;;;;;;;;;;;11.35;80.82;94269.16;4440965;26;20036;-60
2024/04/23 09:24:26;;;;;;;;;;;;;;;11.40;80.76;94266.84;4459424;26;19965;-62
2024/04/23 09:26:27;;;;;;;;;;;;;;;11.39;80.41;94251.28;4432296;26;19942;-60
2024/04/23 09:28:33;;;;;;;;;;;;;;;11.36;81.03;94239.34;4443160;26;19996;-61
2024/04/23 09:30:37;;;;;;;;;;;;;;;11.27;81.42;94250.84;4457091;26;20459;-61
2024/04/23 09:32:39;;;;;;;;;;;;;;;11.32;81.89;94260.84;4439819;26;19941;-62
2024/04/23 09:34:41;;;;;;;;;;;;;;;11.25;81.46;94261.53;4436720;26;19937;-61
2024/04/23 09:36:43;;;;;;;;;;;;;;;11.28;82.12;94269.03;4437571;26;19941;-62
2024/04/23 09:38:48;;;;;;;;;;;;;;;11.22;81.85;94272.34;4443486;26;19989;-61
2024/04/23 09:40:52;;;;;;;;;;;;;;;11.12;82.60;94279.66;4444394;26;19937;-61
2024/04/23 09:42:54;;;;;;;;;;;;;;;11.22;82.93;94279.41;4441630;26;19980;-59
2024/04/23 09:44:55;;;;;;;;;;;;;;;11.23;82.46;94276.63;4444427;26;20000;-63
2024/04/23 09:46:57;;;;;;;;;;;;;;;11.30;82.55;94279.38;4430645;26;20226;-61
2024/04/23 09:49:02;;;;;;;;;;;;;;;11.41;82.46;94260.59;4435379;26;20052;-62
2024/04/23 09:51:07;;;;;;;;;;;;;;;11.54;82.31;94239.03;4444936;26;20008;-60
2024/04/23 09:53:11;;;;;;;;;;;;;;;11.54;81.27;94214.63;4428803;26;19930;-59
2024/04/23 09:55:13;;;;;;;;;;;;;;;11.45;81.53;94201.56;4443806;26;19995;-62
2024/04/23 09:57:16;;;;;;;;;;;;;;;11.36;81.71;94210.50;4442373;26;19930;-63
2024/04/23 09:59:18;;;;;;;;;;;;;;;11.26;82.06;94207.28;4445337;26;19941;-62
2024/04/23 10:01:32;;;;;;;;;;;;;;;11.21;82.22;94188.66;4455871;26;20046;-62
2024/04/23 10:03:35;;;;;;;;;;;;;;;11.20;82.41;94179.13;4442944;26;20040;-61
2024/04/23 10:05:37;;;;;;;;;;;;;;;11.15;82.91;94181.47;4441269;26;19937;-62
2024/04/23 10:07:50;;;;;;;;;;;;;;;11.23;83.21;94181.44;4444964;26;20054;-60
2024/04/23 10:09:52;;;;;;;;;;;;;;;11.24;82.77;94189.09;4440941;26;19958;-62
2024/04/23 10:12:14;;;;;;;;;;;;;;;11.32;82.78;94187.41;4437552;26;20291;-61
2024/04/23 10:14:31;;;;;;;;;;;;;;;11.26;82.42;94183.69;4444973;26;19941;-61
2024/04/23 10:16:33;;;;;;;;;;;;;;;11.22;82.94;94175.34;4443613;26;20244;-61
2024/04/23 10:18:54;;;;;;;;;;;;;;;11.14;82.41;94183.28;4436398;26;19929;-61
2024/04/23 10:20:55;;;;;;;;;;;;;;;11.14;82.77;94191.16;4445425;26;19963;-62
2024/04/23 10:22:58;;;;;;;;;;;;;;;11.22;82.62;94188.44;4418182;26;19941;-59
2024/04/23 10:25:01;;;;;;;;;;;;;;;11.25;82.57;94190.75;4439558;26;20012;-60
2024/04/23 10:27:06;;;;;;;;;;;;;;;11.24;82.54;94193.53;4426370;26;19930;-62
2024/04/23 10:29:09;;;;;;;;;;;;;;;11.17;82.69;94193.41;4434103;26;19937;-59
2024/04/23 10:31:11;;;;;;;;;;;;;;;11.27;83.38;94193.16;4429524;26;19941;-61
2024/04/23 10:33:13;;;;;;;;;;;;;;;11.33;82.99;94181.97;4431302;26;20040;-62
2024/04/23 10:35:18;;;;;;;;;;;;;;;11.37;82.75;94171.97;4416301;26;19930;-63
2024/04/23 10:37:20;;;;;;;;;;;;;;;11.43;82.76;94171.25;4442031;26;19930;-62
2024/04/23 10:39:22;;;;;;;;;;;;;;;11.40;82.17;94161.94;4437666;26;20326;-60
2024/04/23 10:41:24;;;;;;;;;;;;;;;11.41;82.57;94152.25;4425803;26;20223;-59
2024/04/23 10:43:26;;;;;;;;;;;;;;;11.34;82.10;94146.91;4441983;26;19978;-61
2024/04/23 10:45:28;;;;;;;;;;;;;;;11.36;82.61;94149.38;4440590;26;19984;-62
2024/04/23 10:47:30;;;;;;;;;;;;;;;11.37;82.72;94141.31;4438641;26;20449;-62